Agua Doce, Brazil
Current Conditions -  °F | °C
As of 2:00 PM on Sunday 21 Dec 2014 (Local Time) from SBCH Reporting Station
Broken Clouds Broken Clouds  
Wind Chill: 77°   Ceiling: 3000
Heat Index: 79°   Visibility: 6mi
Dew Point: 70°   Wind: 16mph
Humidity: 78%   Direction: 10°N
Pressure: 29.65"   Gusts: 32mph
Location:  27°S, 51.56°W
Report Text: SBCH 211600Z 01014G28KT 9999 FEW012 BKN030 BKN090 25/21 Q1004
Loading
Personal Weather Stations






























Interactive Weather Map New forecast layout! Learn more

10-Day Weather Forecast

Advertisements
Track Severe Weather on mobile